createdAt,value
2022-11-17T00:02:27.919Z,10.27
2022-11-17T00:05:16.396Z,10.53
2022-11-17T00:08:04.122Z,10.73
2022-11-17T00:10:52.271Z,10.07
2022-11-17T00:13:54.195Z,10.13
2022-11-17T00:16:43.492Z,11.17
2022-11-17T00:19:48.791Z,9.70
2022-11-17T00:22:36.734Z,11.13
2022-11-17T00:25:25.123Z,10.17
2022-11-17T00:28:13.129Z,11.10
2022-11-17T00:31:18.975Z,11.53
2022-11-17T00:34:08.977Z,12.37
2022-11-17T00:36:56.977Z,11.70
2022-11-17T00:39:44.833Z,12.67
2022-11-17T00:42:32.687Z,12.53
2022-11-17T00:45:20.856Z,12.23
2022-11-17T00:48:08.667Z,12.33
2022-11-17T00:50:57.903Z,13.00
2022-11-17T00:53:45.687Z,13.60
2022-11-17T00:56:33.902Z,12.50
2022-11-17T00:59:21.929Z,14.60
2022-11-17T01:02:10.233Z,13.07
2022-11-17T01:04:58.296Z,12.57
2022-11-17T01:07:48.165Z,12.47
2022-11-17T01:10:36.820Z,13.30
2022-11-17T01:13:24.604Z,12.97
2022-11-17T01:16:15.191Z,14.07
2022-11-17T01:19:04.569Z,13.33
2022-11-17T01:21:52.549Z,13.87
2022-11-17T01:24:41.808Z,12.30
2022-11-17T01:27:29.923Z,13.40
2022-11-17T01:30:18.622Z,13.40
2022-11-17T01:33:07.073Z,13.97
2022-11-17T01:35:54.939Z,13.70
2022-11-17T01:38:43.402Z,12.90
2022-11-17T01:41:32.645Z,13.43
2022-11-17T01:44:53.978Z,14.07
2022-11-17T01:47:46.922Z,14.40
2022-11-17T01:50:37.699Z,14.03
2022-11-17T01:53:28.559Z,13.93
2022-11-17T01:56:20.238Z,15.13
2022-11-17T01:59:14.615Z,14.13
2022-11-17T02:02:02.779Z,14.57
2022-11-17T02:04:57.152Z,14.47
2022-11-17T02:07:47.337Z,14.13
2022-11-17T02:10:36.987Z,14.17
2022-11-17T02:13:25.657Z,15.53
2022-11-17T02:16:16.273Z,14.20
2022-11-17T02:19:03.695Z,14.27
2022-11-17T02:22:10.486Z,14.10
2022-11-17T02:25:26.992Z,14.57
2022-11-17T02:28:23.155Z,14.67
2022-11-17T02:31:22.702Z,14.73
2022-11-17T02:34:22.372Z,14.60
2022-11-17T02:37:18.345Z,14.80
2022-11-17T02:40:12.509Z,14.70
2022-11-17T02:43:25.714Z,15.20
2022-11-17T02:46:19.060Z,16.23
2022-11-17T02:49:12.287Z,16.27
2022-11-17T02:52:01.542Z,15.83
2022-11-17T02:54:48.983Z,15.83
2022-11-17T02:57:38.714Z,16.30
2022-11-17T03:00:28.225Z,16.53
2022-11-17T03:03:34.667Z,16.00
2022-11-17T03:06:31.268Z,16.00
2022-11-17T03:09:26.907Z,17.10
2022-11-17T03:12:23.326Z,16.63
2022-11-17T03:15:18.521Z,15.90
2022-11-17T03:18:10.186Z,16.93
2022-11-17T03:21:07.457Z,16.70
2022-11-17T03:24:00.945Z,16.33
2022-11-17T03:26:53.555Z,17.43
2022-11-17T03:29:45.919Z,17.47
2022-11-17T03:32:37.993Z,17.97
2022-11-17T03:35:30.041Z,16.50
2022-11-17T03:38:24.159Z,17.37
2022-11-17T03:41:15.415Z,17.57
2022-11-17T03:44:05.854Z,15.93
2022-11-17T03:46:57.605Z,17.10
2022-11-17T03:49:50.779Z,15.83
2022-11-17T03:52:39.342Z,15.83
2022-11-17T03:55:35.770Z,15.80
2022-11-17T03:58:27.601Z,16.03
2022-11-17T04:01:15.947Z,14.87
2022-11-17T04:04:04.116Z,13.90
2022-11-17T04:06:53.285Z,15.30
2022-11-17T04:09:41.406Z,15.10
2022-11-17T04:12:48.170Z,15.07
2022-11-17T04:15:53.734Z,14.13
2022-11-17T04:18:41.296Z,14.80
2022-11-17T04:21:29.244Z,15.40
2022-11-17T04:24:18.381Z,14.20
2022-11-17T04:27:25.883Z,14.23
2022-11-17T04:30:15.251Z,14.13
2022-11-17T04:33:02.891Z,14.53
2022-11-17T04:35:51.443Z,14.63
2022-11-17T04:38:42.520Z,14.37
2022-11-17T04:41:49.129Z,13.27
2022-11-17T04:44:36.644Z,15.23
2022-11-17T04:47:25.491Z,13.83
2022-11-17T04:50:13.448Z,14.10
2022-11-17T04:53:01.088Z,14.40
2022-11-17T04:55:49.075Z,13.97
2022-11-17T04:58:36.655Z,14.90
2022-11-17T05:01:25.435Z,14.60
2022-11-17T05:04:36.615Z,14.73
2022-11-17T05:07:24.301Z,15.10
2022-11-17T05:10:13.973Z,14.23
2022-11-17T05:13:19.328Z,13.63
2022-11-17T05:16:24.916Z,13.20
2022-11-17T05:19:16.036Z,14.37
2022-11-17T05:22:04.168Z,15.17
2022-11-17T05:24:50.934Z,14.30
2022-11-17T05:27:38.711Z,14.53
2022-11-17T05:30:26.636Z,14.30
2022-11-17T05:33:14.474Z,14.77
2022-11-17T05:36:03.913Z,14.10
2022-11-17T05:38:52.509Z,14.73
2022-11-17T05:41:40.361Z,14.03
2022-11-17T05:44:27.818Z,13.63
2022-11-17T05:47:15.700Z,13.37
2022-11-17T05:50:03.553Z,13.70
2022-11-17T05:52:52.751Z,13.53
2022-11-17T05:55:40.541Z,12.70
2022-11-17T05:58:33.541Z,14.23
2022-11-17T06:01:22.154Z,14.23
2022-11-17T06:04:10.833Z,13.20
2022-11-17T06:06:59.649Z,13.93
2022-11-17T06:09:49.296Z,13.13
2022-11-17T06:12:39.427Z,14.17
2022-11-17T06:15:27.656Z,14.17
2022-11-17T06:18:19.486Z,13.00
2022-11-17T06:21:08.813Z,12.80
2022-11-17T06:23:56.421Z,12.57
2022-11-17T06:26:46.264Z,13.27
2022-11-17T06:29:42.430Z,11.97
2022-11-17T06:32:32.691Z,14.07
2022-11-17T06:35:20.522Z,11.87
2022-11-17T06:38:08.234Z,12.57
2022-11-17T06:40:55.613Z,14.37
2022-11-17T06:43:44.599Z,13.83
2022-11-17T06:46:38.079Z,13.83
2022-11-17T06:49:26.387Z,12.53
2022-11-17T06:52:16.360Z,12.80
2022-11-17T06:55:03.894Z,12.77
2022-11-17T06:57:53.588Z,12.30
2022-11-17T07:00:43.110Z,12.33
2022-11-17T07:03:30.817Z,11.83
2022-11-17T07:06:19.232Z,12.67
2022-11-17T07:09:07.076Z,12.77
2022-11-17T07:11:54.839Z,12.30
2022-11-17T07:14:42.707Z,13.67
2022-11-17T07:17:32.803Z,12.10
2022-11-17T07:20:21.047Z,12.60
2022-11-17T07:23:08.854Z,12.83
2022-11-17T07:25:56.792Z,12.07
2022-11-17T07:28:44.909Z,13.30
2022-11-17T07:31:33.079Z,12.83
2022-11-17T07:34:22.929Z,13.27
2022-11-17T07:37:10.827Z,11.80
2022-11-17T07:39:58.359Z,11.90
2022-11-17T07:42:50.018Z,10.77
2022-11-17T07:45:37.994Z,11.40
2022-11-17T07:48:25.691Z,11.83
2022-11-17T07:51:14.562Z,11.77
2022-11-17T07:54:02.814Z,11.33
2022-11-17T07:56:50.669Z,11.33
2022-11-17T07:59:38.418Z,10.87
2022-11-17T08:02:28.122Z,11.03
2022-11-17T08:05:17.376Z,11.33
2022-11-17T08:08:07.854Z,10.73
2022-11-17T08:10:55.502Z,10.53
2022-11-17T08:13:43.677Z,10.27
2022-11-17T08:16:32.166Z,9.60
2022-11-17T08:19:20.979Z,9.57
2022-11-17T08:22:08.546Z,9.40
2022-11-17T08:24:57.654Z,9.77
2022-11-17T08:27:45.225Z,10.57
2022-11-17T08:30:34.936Z,11.33
2022-11-17T08:33:23.400Z,11.40
2022-11-17T08:36:11.970Z,11.23
2022-11-17T08:38:59.603Z,11.80
2022-11-17T08:41:48.753Z,11.50
2022-11-17T08:44:36.286Z,12.03
2022-11-17T08:47:24.009Z,12.00
2022-11-17T08:50:11.919Z,12.60
2022-11-17T08:52:59.793Z,12.87
2022-11-17T08:55:48.277Z,12.43
2022-11-17T08:58:40.999Z,11.70
2022-11-17T09:01:28.709Z,11.43
2022-11-17T09:04:16.689Z,11.63
2022-11-17T09:07:04.613Z,10.87
2022-11-17T09:09:52.579Z,12.13
2022-11-17T09:12:40.205Z,11.93
2022-11-17T09:15:29.788Z,12.00
2022-11-17T09:18:17.787Z,11.37
2022-11-17T09:21:07.763Z,10.77
2022-11-17T09:23:55.602Z,10.50
2022-11-17T09:26:43.638Z,10.70
2022-11-17T09:29:31.584Z,10.23
2022-11-17T09:32:20.895Z,11.50
2022-11-17T09:35:09.661Z,10.67
2022-11-17T09:38:01.290Z,10.73
2022-11-17T09:40:49.281Z,10.03
2022-11-17T09:43:39.674Z,9.80
2022-11-17T09:46:33.422Z,8.87
2022-11-17T09:49:33.393Z,8.83
2022-11-17T09:52:27.153Z,9.03
2022-11-17T09:55:31.146Z,9.23
2022-11-17T09:58:32.938Z,8.53
2022-11-17T10:01:23.017Z,8.50
2022-11-17T10:04:13.590Z,8.03
2022-11-17T10:07:03.983Z,8.90
2022-11-17T10:09:53.644Z,9.73
2022-11-17T10:12:48.718Z,8.53
2022-11-17T10:15:43.376Z,8.03
2022-11-17T10:18:37.721Z,8.43
2022-11-17T10:21:29.645Z,8.00
2022-11-17T10:24:37.173Z,7.40
2022-11-17T10:27:29.949Z,7.83
2022-11-17T10:30:24.069Z,6.40
2022-11-17T10:33:15.263Z,6.40
2022-11-17T10:36:04.168Z,6.37
2022-11-17T10:38:54.220Z,5.40
2022-11-17T10:41:49.035Z,5.87
2022-11-17T10:44:38.200Z,5.63
2022-11-17T10:47:30.012Z,5.40
2022-11-17T10:50:24.040Z,5.40
2022-11-17T10:53:43.000Z,4.77
2022-11-17T10:56:35.275Z,5.27
2022-11-17T10:59:30.000Z,4.80
2022-11-17T11:02:30.208Z,5.43
2022-11-17T11:05:21.277Z,4.80
2022-11-17T11:08:19.644Z,5.13
2022-11-17T11:11:15.464Z,5.03
2022-11-17T11:14:10.737Z,5.43
2022-11-17T11:17:00.478Z,4.80
2022-11-17T11:19:53.302Z,4.30
2022-11-17T11:22:51.042Z,5.07
2022-11-17T11:25:43.960Z,4.90
2022-11-17T11:28:46.180Z,4.40
2022-11-17T11:31:48.584Z,3.70
2022-11-17T11:34:51.856Z,3.90
2022-11-17T11:37:45.712Z,4.07
2022-11-17T11:40:39.684Z,3.47
2022-11-17T11:43:35.931Z,3.50
2022-11-17T11:46:37.495Z,3.37
2022-11-17T11:49:34.110Z,3.67
2022-11-17T11:52:28.075Z,4.03
2022-11-17T11:55:21.448Z,3.63
2022-11-17T11:58:15.772Z,3.60
2022-11-17T12:01:08.102Z,3.43
2022-11-17T12:04:03.791Z,4.10
2022-11-17T12:06:57.002Z,8.03
2022-11-17T12:10:04.995Z,9.63
2022-11-17T12:12:53.061Z,9.70
2022-11-17T12:15:41.016Z,9.77
2022-11-17T12:18:33.463Z,10.93
2022-11-17T12:21:24.549Z,9.73
2022-11-17T12:24:28.510Z,9.57
2022-11-17T12:27:45.638Z,9.00
2022-11-17T12:30:54.491Z,8.60
2022-11-17T12:34:12.012Z,9.67
2022-11-17T12:37:22.102Z,11.90
2022-11-17T12:40:31.271Z,10.83
2022-11-17T12:43:24.689Z,9.47
2022-11-17T12:46:27.360Z,8.13
2022-11-17T12:49:25.710Z,7.30
2022-11-17T12:52:18.404Z,7.60
2022-11-17T12:55:17.841Z,7.93
2022-11-17T12:58:20.586Z,7.00
2022-11-17T13:01:16.417Z,6.73
2022-11-17T13:04:10.261Z,6.10
2022-11-17T13:07:03.206Z,5.70
2022-11-17T13:09:52.994Z,5.70
2022-11-17T13:12:40.811Z,5.73
2022-11-17T13:15:28.659Z,4.97
2022-11-17T13:18:25.952Z,4.43
2022-11-17T13:21:31.583Z,3.90
2022-11-17T13:24:31.673Z,3.67
2022-11-17T13:27:23.456Z,3.63
2022-11-17T13:30:15.100Z,4.10
2022-11-17T13:33:04.091Z,4.33
2022-11-17T13:36:09.902Z,4.00
2022-11-17T13:39:03.123Z,4.07
2022-11-17T13:41:51.215Z,4.10
2022-11-17T13:44:39.215Z,4.33
2022-11-17T13:47:45.363Z,4.83
2022-11-17T13:50:40.849Z,5.37
2022-11-17T13:53:33.863Z,5.10
2022-11-17T13:56:28.110Z,5.53
2022-11-17T13:59:26.180Z,6.03
2022-11-17T14:02:25.890Z,7.67
2022-11-17T14:05:25.930Z,9.47
2022-11-17T14:08:28.698Z,12.07
2022-11-17T14:11:22.551Z,13.03
2022-11-17T14:14:14.531Z,12.80
2022-11-17T14:17:13.525Z,14.00
2022-11-17T14:20:20.102Z,15.00
2022-11-17T14:23:20.477Z,13.87
2022-11-17T14:26:21.300Z,14.17
2022-11-17T14:29:12.504Z,11.53
2022-11-17T14:32:00.127Z,12.10
2022-11-17T14:34:47.887Z,10.93
2022-11-17T14:37:35.824Z,11.90
2022-11-17T14:40:23.518Z,10.30
2022-11-17T14:43:13.018Z,9.63
2022-11-17T14:46:01.082Z,9.80
2022-11-17T14:48:49.074Z,8.97
2022-11-17T14:51:36.983Z,9.20
2022-11-17T14:54:24.824Z,9.13
2022-11-17T14:57:12.651Z,9.17
2022-11-17T15:00:01.846Z,9.40
2022-11-17T15:02:51.455Z,8.90
2022-11-17T15:05:46.377Z,9.67
2022-11-17T15:08:34.416Z,9.10
2022-11-17T15:11:22.483Z,8.37
2022-11-17T15:14:12.297Z,8.47
2022-11-17T15:17:01.728Z,8.40
2022-11-17T15:19:49.660Z,7.97
2022-11-17T15:22:37.705Z,7.03
2022-11-17T15:25:25.339Z,8.23
2022-11-17T15:28:18.469Z,6.67
2022-11-17T15:31:13.889Z,6.93
2022-11-17T15:34:03.281Z,5.70
2022-11-17T15:36:51.418Z,6.20
2022-11-17T15:39:39.398Z,6.97
2022-11-17T15:42:27.287Z,6.40
2022-11-17T15:45:15.206Z,6.17
2022-11-17T15:48:02.979Z,6.87
2022-11-17T15:50:57.337Z,6.93
2022-11-17T15:53:46.417Z,7.37
2022-11-17T15:56:37.460Z,8.07
2022-11-17T15:59:25.342Z,8.10
2022-11-17T16:02:14.761Z,8.57
2022-11-17T16:05:02.215Z,7.80
2022-11-17T16:07:51.133Z,8.23
2022-11-17T16:10:39.381Z,8.87
2022-11-17T16:13:27.037Z,7.23
2022-11-17T16:16:16.469Z,8.00
2022-11-17T16:19:04.363Z,8.43
2022-11-17T16:21:52.034Z,8.57
2022-11-17T16:24:41.306Z,8.20
2022-11-17T16:27:29.179Z,8.53
2022-11-17T16:30:17.910Z,8.23
2022-11-17T16:33:11.462Z,8.63
2022-11-17T16:36:05.852Z,9.23
2022-11-17T16:39:01.025Z,8.13
2022-11-17T16:41:51.385Z,8.87
2022-11-17T16:44:39.691Z,8.57
2022-11-17T16:47:27.317Z,7.57
2022-11-17T16:50:15.039Z,7.67
2022-11-17T16:53:02.653Z,7.40
2022-11-17T16:55:50.239Z,7.17
2022-11-17T16:58:39.580Z,7.70
2022-11-17T17:01:30.437Z,7.13
2022-11-17T17:04:18.188Z,7.53
2022-11-17T17:07:06.768Z,7.97
2022-11-17T17:09:54.796Z,7.20
2022-11-17T17:12:42.247Z,7.17
2022-11-17T17:15:31.468Z,7.70
2022-11-17T17:18:19.916Z,8.63
2022-11-17T17:21:08.724Z,7.83
2022-11-17T17:23:56.762Z,7.87
2022-11-17T17:26:44.827Z,8.90
2022-11-17T17:29:32.425Z,8.53
2022-11-17T17:32:22.957Z,8.77
2022-11-17T17:35:10.947Z,8.87
2022-11-17T17:37:58.873Z,8.40
2022-11-17T17:40:46.661Z,8.00
2022-11-17T17:43:34.526Z,8.80
2022-11-17T17:46:22.502Z,8.80
2022-11-17T17:49:11.913Z,8.40
2022-11-17T17:51:59.635Z,7.90
2022-11-17T17:54:47.500Z,7.83
2022-11-17T17:57:35.196Z,8.40
2022-11-17T18:00:22.977Z,9.10
2022-11-17T18:03:10.588Z,8.93
2022-11-17T18:06:02.174Z,8.60
2022-11-17T18:08:50.523Z,9.00
2022-11-17T18:11:45.715Z,8.47
2022-11-17T18:14:33.536Z,8.53
2022-11-17T18:17:21.103Z,7.63
2022-11-17T18:20:10.702Z,7.70
2022-11-17T18:22:59.554Z,8.43
2022-11-17T18:25:47.050Z,8.67
2022-11-17T18:28:35.045Z,9.03
2022-11-17T18:31:24.174Z,8.77
2022-11-17T18:34:16.643Z,9.43
2022-11-17T18:37:04.530Z,9.30
2022-11-17T18:39:54.210Z,9.77
2022-11-17T18:42:42.184Z,9.87
2022-11-17T18:45:29.840Z,9.17
2022-11-17T18:48:17.333Z,9.23
2022-11-17T18:51:23.297Z,8.93
2022-11-17T18:54:12.393Z,9.10
2022-11-17T18:57:01.975Z,9.57
2022-11-17T18:59:49.663Z,9.90
2022-11-17T19:02:37.623Z,9.47
2022-11-17T19:05:25.445Z,9.80
2022-11-17T19:08:14.799Z,10.30
2022-11-17T19:11:06.028Z,9.37
2022-11-17T19:13:55.559Z,10.07
2022-11-17T19:16:45.122Z,10.03
2022-11-17T19:19:32.883Z,10.67
2022-11-17T19:22:20.976Z,11.07
2022-11-17T19:25:09.396Z,10.83
2022-11-17T19:27:58.132Z,10.87
2022-11-17T19:30:47.053Z,11.70
2022-11-17T19:33:36.062Z,11.20
2022-11-17T19:36:25.551Z,11.57
2022-11-17T19:39:14.702Z,11.70
2022-11-17T19:42:03.245Z,11.53
2022-11-17T19:44:51.616Z,11.17
2022-11-17T19:47:40.348Z,11.37
2022-11-17T19:50:30.603Z,11.60
2022-11-17T19:53:18.467Z,11.03
2022-11-17T19:56:06.758Z,11.77
2022-11-17T19:58:55.720Z,12.00
2022-11-17T20:01:43.500Z,11.47
2022-11-17T20:04:32.426Z,11.00
2022-11-17T20:07:20.016Z,11.73
2022-11-17T20:10:08.353Z,12.07
2022-11-17T20:12:56.075Z,11.03
2022-11-17T20:15:43.979Z,11.50
2022-11-17T20:18:31.659Z,11.87
2022-11-17T20:21:21.050Z,11.27
2022-11-17T20:24:09.419Z,11.50
2022-11-17T20:26:57.007Z,12.47
2022-11-17T20:29:45.282Z,12.40
2022-11-17T20:32:35.481Z,11.77
2022-11-17T20:35:23.277Z,12.63
2022-11-17T20:38:15.690Z,11.60
2022-11-17T20:41:04.394Z,11.50
2022-11-17T20:43:53.797Z,11.43
2022-11-17T20:46:41.397Z,13.23
2022-11-17T20:49:29.303Z,10.87
2022-11-17T20:52:17.476Z,11.87
2022-11-17T20:55:07.443Z,11.27
2022-11-17T20:57:55.120Z,12.40
2022-11-17T21:00:43.508Z,11.93
2022-11-17T21:03:31.222Z,12.30
2022-11-17T21:06:19.692Z,11.53
2022-11-17T21:09:07.676Z,12.57
2022-11-17T21:11:59.518Z,12.37
2022-11-17T21:14:47.195Z,10.70
2022-11-17T21:17:52.648Z,11.13
2022-11-17T21:20:40.566Z,11.30
2022-11-17T21:23:28.260Z,12.00
2022-11-17T21:26:17.840Z,12.50
2022-11-17T21:29:07.215Z,12.07
2022-11-17T21:31:55.219Z,11.50
2022-11-17T21:34:47.002Z,12.40
2022-11-17T21:37:36.452Z,12.30
2022-11-17T21:40:24.491Z,11.83
2022-11-17T21:43:12.309Z,13.13
2022-11-17T21:46:04.267Z,12.53
2022-11-17T21:48:53.467Z,11.37
2022-11-17T21:51:40.914Z,12.43
2022-11-17T21:54:31.770Z,12.63
2022-11-17T21:57:19.472Z,12.27
2022-11-17T22:00:08.507Z,12.83
2022-11-17T22:02:57.683Z,12.80
2022-11-17T22:05:45.535Z,11.37
2022-11-17T22:08:35.169Z,12.33
2022-11-17T22:11:36.738Z,13.27
2022-11-17T22:14:25.217Z,11.07
2022-11-17T22:22:53.809Z,13.10
2022-11-17T22:25:45.797Z,11.90
2022-11-17T22:28:34.094Z,12.20
2022-11-17T22:31:22.485Z,11.10
2022-11-17T22:34:10.467Z,12.37
2022-11-17T22:36:59.636Z,10.77
2022-11-17T22:39:47.458Z,10.77
2022-11-17T22:42:35.244Z,12.80
2022-11-17T22:45:23.115Z,11.10
2022-11-17T22:48:10.894Z,11.07
2022-11-17T22:50:59.619Z,11.70
2022-11-17T22:53:48.669Z,11.60
2022-11-17T22:56:36.806Z,10.97
2022-11-17T22:59:24.619Z,11.20
2022-11-17T23:02:12.017Z,11.10
2022-11-17T23:04:59.558Z,11.43
2022-11-17T23:07:47.523Z,12.20
2022-11-17T23:10:37.649Z,10.53
2022-11-17T23:13:25.047Z,10.83
2022-11-17T23:16:12.874Z,10.60
2022-11-17T23:19:00.562Z,10.53
2022-11-17T23:21:48.909Z,11.20
2022-11-17T23:24:36.856Z,10.40
2022-11-17T23:27:25.876Z,11.53
2022-11-17T23:30:14.662Z,11.17
2022-11-17T23:33:02.614Z,11.73
2022-11-17T23:35:50.465Z,11.33
2022-11-17T23:38:38.082Z,10.37
2022-11-17T23:41:25.810Z,10.73
2022-11-17T23:44:15.134Z,9.60
2022-11-17T23:47:03.134Z,8.97
2022-11-17T23:49:50.570Z,9.77
2022-11-17T23:52:38.251Z,9.43
2022-11-17T23:55:26.091Z,9.63
2022-11-17T23:58:13.637Z,10.87
